This is the latest recevied weather packets stored in our database for station/object EB1BWO-10. If no packets are shown the sender has not sent any weather packets the latest 10 day(s).
| Time | Temp. | Humidity | Pressure | Rain* | Wind** | Luminosity | Snow |
|---|---|---|---|---|---|---|---|
| 1777517862 | 13.33° C | 70% | 947.5 hPa | - | - | - | - |
| 1777516963 | 13.33° C | 70% | 947.4 hPa | - | - | - | - |
| 1777516062 | 12.78° C | 79% | 947.3 hPa | - | - | - | - |
| 1777515162 | 12.22° C | 84% | 947.1 hPa | - | - | - | - |
| 1777514262 | 12.22° C | 83% | 946.9 hPa | - | - | - | - |
| 1777513362 | 12.22° C | 82% | 946.7 hPa | - | - | - | - |
| 1777512462 | 12.22° C | 83% | 946.6 hPa | - | - | - | - |
| 1777511563 | 12.22° C | 81% | 946.6 hPa | - | - | - | - |
| 1777509763 | 11.11° C | 90% | 946.5 hPa | - | - | - | - |
| 1777508863 | 12.78° C | 85% | 946.4 hPa | - | - | - | - |
| 1777507963 | 12.78° C | 84% | 946.2 hPa | - | - | - | - |
| 1777507063 | 12.78° C | 85% | 946 hPa | - | - | - | - |
| 1777506163 | 12.78° C | 86% | 946 hPa | - | - | - | - |
| 1777505263 | 12.22° C | 88% | 945.9 hPa | - | - | - | - |
| 1777504363 | 12.22° C | 89% | 945.7 hPa | - | - | - | - |
| 1777503462 | 12.22° C | 87% | 945.4 hPa | - | - | - | - |
| 1777502562 | 12.22° C | 87% | 945.4 hPa | - | - | - | - |
| 1777501662 | 12.22° C | 90% | 944.9 hPa | - | - | - | - |
| 1777500762 | 11.67° C | 93% | 944.8 hPa | - | - | - | - |
| 1777499862 | 12.22° C | 93% | 944.9 hPa | - | - | - | - |
| 1777498962 | 11.67° C | 94% | 944.5 hPa | - | - | - | - |
| 1777498062 | 12.22° C | 94% | 944.6 hPa | - | - | - | - |
| 1777497162 | 12.22° C | 95% | 944.8 hPa | - | - | - | - |
| 1777496262 | 12.22° C | 94% | 945 hPa | - | - | - | - |
| 1777495362 | 12.22° C | 96% | 944.9 hPa | - | - | - | - |
* Rain since midnight (hover to see other rain measurements)
** Current wind speed in m/s (hover to see current wind gust speed)